Time;durP1;ratioP1;P1;durP2;ratioP2;P2;SDS_P1;SDS_P2;PMS_P1;PMS_P2;Temp;Humidity;BMP_temperature;BMP_pressure;BME280_temperature;BME280_humidity;BME280_pressure;Samples;Min_cycle;Max_cycle;Signal;HPM_P1;HPM_P2
2023/05/03 00:02:23;;;;;;;6.32;2.22;;;;;;;4.92;72.88;102761.81;4972952;28;20637;-71
2023/05/03 00:04:53;;;;;;;4.20;2.20;;;;;;;4.91;73.09;102771.38;4974320;28;20039;-71
2023/05/03 00:07:21;;;;;;;4.45;2.10;;;;;;;4.90;72.98;102771.34;4973099;28;20047;-71
2023/05/03 00:09:49;;;;;;;5.90;2.30;;;;;;;4.86;72.97;102762.53;4968012;28;20665;-71
2023/05/03 00:12:16;;;;;;;5.57;2.28;;;;;;;4.83;73.60;102767.72;4982005;28;20134;-71
2023/05/03 00:14:44;;;;;;;5.70;2.40;;;;;;;4.79;73.73;102763.25;4967043;28;20046;-71
2023/05/03 00:17:12;;;;;;;6.05;2.30;;;;;;;4.74;73.76;102767.47;4967521;28;20099;-71
2023/05/03 00:19:39;;;;;;;5.63;2.38;;;;;;;4.72;73.75;102771.78;4967062;28;20046;-71
2023/05/03 00:22:06;;;;;;;4.80;2.40;;;;;;;4.67;73.86;102766.44;4966555;28;20075;-71
2023/05/03 00:24:34;;;;;;;7.18;2.30;;;;;;;4.66;73.89;102762.06;4966206;28;20032;-71
2023/05/03 00:27:03;;;;;;;8.60;2.35;;;;;;;4.64;74.13;102763.75;4965472;28;20047;-71
2023/05/03 00:29:31;;;;;;;4.78;2.25;;;;;;;4.63;74.26;102765.47;4981902;28;20047;-71
2023/05/03 00:31:59;;;;;;;9.07;2.90;;;;;;;4.58;74.50;102755.78;4974816;28;20058;-71
2023/05/03 00:34:26;;;;;;;4.28;2.30;;;;;;;4.55;74.69;102755.69;4969122;28;20094;-71
2023/05/03 00:36:53;;;;;;;5.55;2.28;;;;;;;4.50;74.81;102755.56;4997303;28;20040;-71
2023/05/03 00:39:20;;;;;;;5.22;2.60;;;;;;;4.47;74.91;102750.25;4967277;28;20952;-71
2023/05/03 00:41:47;;;;;;;8.85;2.75;;;;;;;4.44;74.76;102756.28;4977929;28;20094;-70
2023/05/03 00:44:15;;;;;;;7.50;2.75;;;;;;;4.42;74.94;102750.13;4968839;28;20050;-70
2023/05/03 00:46:42;;;;;;;7.50;2.55;;;;;;;4.41;75.37;102753.59;4986641;28;20047;-71
2023/05/03 00:49:09;;;;;;;6.85;2.47;;;;;;;4.38;75.55;102760.47;4988242;28;20106;-70
2023/05/03 00:51:36;;;;;;;5.22;2.50;;;;;;;4.33;75.69;102755.13;4989449;28;20051;-71
2023/05/03 00:54:03;;;;;;;6.15;2.70;;;;;;;4.27;75.80;102758.44;4988148;28;20571;-71
2023/05/03 00:56:32;;;;;;;5.10;2.40;;;;;;;4.26;75.97;102766.25;4988240;28;20096;-71
2023/05/03 00:59:17;;;;;;;4.40;2.45;;;;;;;4.21;76.24;102760.91;4989897;28;20047;-70
2023/05/03 01:01:51;;;;;;;5.07;2.58;;;;;;;4.19;76.30;102763.47;4980480;28;20035;-71
2023/05/03 01:04:20;;;;;;;5.93;2.63;;;;;;;4.16;76.36;102760.78;4986449;28;20074;-71
2023/05/03 01:07:21;;;;;;;4.80;2.42;;;;;;;4.16;76.25;102765.09;4987824;28;20059;-71
2023/05/03 01:10:06;;;;;;;6.38;2.63;;;;;;;4.17;76.53;102759.03;4990343;28;20043;-71
2023/05/03 01:13:14;;;;;;;6.45;2.70;;;;;;;4.17;76.64;102761.66;4987459;28;20042;-71
2023/05/03 01:15:50;;;;;;;5.93;2.50;;;;;;;4.15;76.50;102761.63;4985439;28;20563;-71
2023/05/03 01:18:31;;;;;;;3.50;2.47;;;;;;;4.17;76.65;102767.75;4972505;28;20035;-71
2023/05/03 01:21:00;;;;;;;5.78;2.95;;;;;;;4.15;76.78;102766.84;4989224;28;20045;-71
2023/05/03 01:23:39;;;;;;;7.45;2.63;;;;;;;4.15;76.76;102764.25;4989601;28;20039;-71
2023/05/03 01:26:27;;;;;;;7.10;2.85;;;;;;;4.13;76.91;102758.09;4989192;28;20053;-71
2023/05/03 01:28:55;;;;;;;10.48;2.80;;;;;;;4.13;76.92;102763.31;4988970;28;20043;-71
2023/05/03 01:31:43;;;;;;;3.65;2.40;;;;;;;4.11;76.75;102766.72;4988654;28;20051;-71
2023/05/03 01:34:47;;;;;;;5.85;2.60;;;;;;;4.10;77.05;102762.34;4989262;28;20051;-71
2023/05/03 01:37:16;;;;;;;6.13;2.95;;;;;;;4.10;77.17;102767.56;4988735;28;20094;-71
2023/05/03 01:40:06;;;;;;;7.00;3.00;;;;;;;4.08;77.00;102772.72;4986899;28;20045;-71
2023/05/03 01:42:37;;;;;;;6.18;2.80;;;;;;;4.07;77.32;102772.69;4968587;28;20043;-71
2023/05/03 01:45:04;;;;;;;7.18;3.03;;;;;;;4.07;77.50;102780.53;4983451;28;20050;-71
2023/05/03 01:47:32;;;;;;;6.82;3.08;;;;;;;4.05;77.20;102780.50;4984228;28;20047;-71
2023/05/03 01:49:59;;;;;;;8.63;3.00;;;;;;;4.06;77.80;102781.34;4984536;28;20067;-70
2023/05/03 01:52:26;;;;;;;6.05;3.15;;;;;;;4.05;77.75;102780.50;4967699;28;20047;-71
2023/05/03 01:54:55;;;;;;;8.23;3.17;;;;;;;4.02;77.52;102783.00;4983739;28;20183;-71
2023/05/03 01:57:22;;;;;;;6.78;2.97;;;;;;;4.02;77.72;102777.78;4983675;28;20518;-71
2023/05/03 01:59:49;;;;;;;7.45;2.97;;;;;;;3.96;77.62;102778.50;4984254;28;20047;-70
2023/05/03 02:02:16;;;;;;;4.65;2.65;;;;;;;3.91;77.71;102780.09;4974519;28;20046;-71
2023/05/03 02:04:44;;;;;;;4.35;2.88;;;;;;;3.87;77.66;102780.84;4969610;28;20846;-70
2023/05/03 02:07:11;;;;;;;5.80;3.20;;;;;;;3.85;78.02;102782.53;4968787;28;20094;-71
2023/05/03 02:09:38;;;;;;;6.65;2.90;;;;;;;3.83;77.88;102777.28;4967807;28;20098;-71
2023/05/03 02:12:05;;;;;;;6.82;3.28;;;;;;;3.80;78.16;102779.78;5000067;28;20039;-71
2023/05/03 02:14:33;;;;;;;6.60;3.10;;;;;;;3.79;78.37;102777.13;4966974;28;20046;-71
2023/05/03 02:17:01;;;;;;;5.90;2.97;;;;;;;3.72;78.37;102779.53;5000550;28;20043;-71
2023/05/03 02:19:29;;;;;;;7.22;3.10;;;;;;;3.70;78.38;102781.25;4968661;28;20488;-71
2023/05/03 02:21:56;;;;;;;5.95;3.45;;;;;;;3.69;78.39;102782.09;4983796;28;20106;-71
2023/05/03 02:24:23;;;;;;;6.65;2.97;;;;;;;3.66;78.50;102781.13;4969209;28;20058;-70
2023/05/03 02:26:50;;;;;;;6.20;3.13;;;;;;;3.61;78.37;102788.81;4967038;28;20465;-70
2023/05/03 02:29:17;;;;;;;4.07;2.90;;;;;;;3.60;78.50;102786.13;4983187;28;20498;-71
2023/05/03 02:31:44;;;;;;;6.47;3.15;;;;;;;3.57;78.67;102784.31;4989304;28;20099;-71
2023/05/03 02:34:11;;;;;;;4.93;2.88;;;;;;;3.55;78.94;102775.56;4988321;28;20573;-70
2023/05/03 02:36:38;;;;;;;8.48;3.20;;;;;;;3.53;78.89;102779.84;4987060;28;20471;-71
2023/05/03 02:39:05;;;;;;;5.93;3.15;;;;;;;3.51;78.88;102778.94;5002905;28;20035;-70
2023/05/03 02:41:32;;;;;;;8.20;3.10;;;;;;;3.47;79.02;102782.28;4988194;28;20061;-70
2023/05/03 02:44:00;;;;;;;8.57;3.13;;;;;;;3.46;78.90;102780.50;4986232;28;20043;-71
2023/05/03 02:46:27;;;;;;;8.55;3.28;;;;;;;3.43;79.18;102770.88;4970119;28;20054;-70
2023/05/03 02:48:54;;;;;;;5.82;3.35;;;;;;;3.40;79.12;102774.28;4987356;28;20054;-71
2023/05/03 02:51:23;;;;;;;5.45;3.35;;;;;;;3.39;79.17;102769.00;4987714;28;20051;-70
2023/05/03 02:53:50;;;;;;;8.25;3.30;;;;;;;3.37;79.27;102768.06;4987992;28;20826;-70
2023/05/03 02:56:16;;;;;;;7.22;3.40;;;;;;;3.33;79.58;102758.41;4986923;28;20090;-71
2023/05/03 02:58:44;;;;;;;8.35;3.42;;;;;;;3.28;79.81;102754.75;5002320;28;20070;-71
2023/05/03 03:01:11;;;;;;;7.07;3.78;;;;;;;3.24;79.80;102752.06;5002238;28;20490;-71
2023/05/03 03:03:38;;;;;;;8.32;3.80;;;;;;;3.20;79.82;102747.59;4974594;28;20074;-71
2023/05/03 03:06:06;;;;;;;8.88;3.50;;;;;;;3.17;80.01;102749.22;4987805;28;20027;-70
2023/05/03 03:08:37;;;;;;;8.00;4.20;;;;;;;3.16;80.23;102747.44;5002567;28;20051;-70
2023/05/03 03:11:05;;;;;;;6.80;3.88;;;;;;;3.12;80.42;102736.03;4985453;28;20051;-71
2023/05/03 03:13:33;;;;;;;9.68;4.00;;;;;;;3.14;80.72;102736.09;4969247;28;20134;-71
2023/05/03 03:16:01;;;;;;;8.35;4.15;;;;;;;3.13;80.82;102729.09;4986333;28;20039;-71
2023/05/03 03:18:28;;;;;;;8.75;4.65;;;;;;;3.10;80.86;102725.56;4987604;28;20098;-71
2023/05/03 03:20:54;;;;;;;9.55;4.82;;;;;;;3.10;81.17;102722.94;5002478;28;20062;-71
2023/05/03 03:23:22;;;;;;;6.72;4.22;;;;;;;3.12;81.29;102715.19;4986492;28;20066;-71
2023/05/03 03:25:49;;;;;;;7.72;4.60;;;;;;;3.11;81.44;102711.69;4987825;28;20043;-71
2023/05/03 03:28:17;;;;;;;6.18;4.20;;;;;;;3.13;81.60;102713.47;4985313;28;20050;-70
2023/05/03 03:30:44;;;;;;;7.85;4.45;;;;;;;3.12;81.68;102712.59;4986462;28;20042;-70
2023/05/03 03:33:20;;;;;;;8.98;4.45;;;;;;;3.17;81.70;102715.34;4982531;28;20103;-71
2023/05/03 03:35:51;;;;;;;7.97;4.95;;;;;;;3.16;81.80;102719.66;4967023;28;20035;-70
2023/05/03 03:38:21;;;;;;;6.80;4.53;;;;;;;3.17;82.02;102718.81;4966978;28;20829;-71
2023/05/03 03:40:55;;;;;;;;;;;;;;;3.17;81.91;102734.44;4982840;28;20421;-70
2023/05/03 03:43:22;;;;;;;8.30;4.32;;;;;;;3.19;81.85;102743.22;4950082;28;19926;-70
2023/05/03 03:45:49;;;;;;;8.52;4.30;;;;;;;3.21;81.91;102735.41;4982768;28;20649;-71
2023/05/03 03:48:17;;;;;;;8.18;4.25;;;;;;;3.24;81.88;102746.84;4951020;28;20066;-70
2023/05/03 03:50:44;;;;;;;6.72;4.20;;;;;;;3.26;81.85;102745.16;4966455;28;20120;-71
2023/05/03 03:53:12;;;;;;;7.50;4.32;;;;;;;3.26;81.64;102742.53;4966709;28;20602;-70
2023/05/03 03:55:40;;;;;;;7.85;4.28;;;;;;;3.30;81.66;102738.34;4968148;28;20052;-71
2023/05/03 03:58:07;;;;;;;8.93;4.65;;;;;;;3.26;81.48;102747.75;4966284;28;20036;-71
2023/05/03 04:00:36;;;;;;;11.00;4.43;;;;;;;3.29;81.44;102741.78;4966354;28;20611;-71
2023/05/03 04:03:09;;;;;;;7.75;4.28;;;;;;;3.30;81.25;102745.25;4968426;28;20131;-71
2023/05/03 04:05:36;;;;;;;10.48;4.70;;;;;;;3.27;81.24;102748.66;4967399;28;20039;-71
2023/05/03 04:08:04;;;;;;;10.07;4.70;;;;;;;3.26;81.36;102746.88;4982485;28;20046;-70
2023/05/03 04:10:33;;;;;;;7.10;4.28;;;;;;;3.24;81.26;102743.34;4966720;28;20526;-71
2023/05/03 04:13:00;;;;;;;9.15;4.90;;;;;;;3.21;81.33;102738.03;4966872;28;20536;-70
2023/05/03 04:15:27;;;;;;;9.45;4.53;;;;;;;3.17;81.53;102744.88;4981718;28;20508;-71
2023/05/03 04:17:57;;;;;;;8.52;4.82;;;;;;;3.15;81.71;102743.06;4965722;28;20040;-70
2023/05/03 04:20:24;;;;;;;7.55;4.80;;;;;;;3.15;81.83;102754.41;4966091;28;20094;-71
2023/05/03 04:22:51;;;;;;;9.25;4.70;;;;;;;3.12;81.83;102754.28;4989490;28;20045;-70
2023/05/03 04:25:22;;;;;;;8.80;4.60;;;;;;;3.13;81.86;102758.66;4985258;28;20039;-71
2023/05/03 04:27:57;;;;;;;7.03;4.70;;;;;;;3.18;81.71;102754.47;5002257;28;20071;-71
2023/05/03 04:30:26;;;;;;;9.68;5.00;;;;;;;3.20;81.73;102758.00;5001658;28;20039;-71
2023/05/03 04:32:58;;;;;;;7.93;5.00;;;;;;;3.26;81.74;102759.94;4984623;28;20047;-71
2023/05/03 04:35:27;;;;;;;8.20;4.63;;;;;;;3.38;81.39;102765.53;5001294;28;20047;-72
2023/05/03 04:37:56;;;;;;;6.72;4.30;;;;;;;3.57;80.93;102769.53;5001671;28;20035;-70
2023/05/03 04:40:25;;;;;;;7.50;4.90;;;;;;;3.64;80.55;102768.00;4969747;28;20043;-71
2023/05/03 04:43:01;;;;;;;9.00;4.57;;;;;;;3.75;80.37;102770.06;5001817;28;20106;-71
2023/05/03 04:45:30;;;;;;;7.38;4.80;;;;;;;3.95;79.73;102765.41;5001300;28;20043;-71
2023/05/03 04:47:57;;;;;;;11.18;5.00;;;;;;;4.13;78.87;102765.91;5001514;28;20051;-71
2023/05/03 04:50:25;;;;;;;8.27;4.90;;;;;;;4.22;78.70;102770.50;5002261;28;21148;-71
2023/05/03 04:52:51;;;;;;;6.90;4.53;;;;;;;4.54;77.92;102772.19;4988718;28;20035;-70
2023/05/03 04:55:20;;;;;;;7.32;4.30;;;;;;;4.98;76.63;102773.28;4989041;28;20042;-71
2023/05/03 04:57:47;;;;;;;9.60;4.57;;;;;;;5.62;74.78;102774.72;4989611;28;20046;-71
2023/05/03 05:00:16;;;;;;;13.52;4.38;;;;;;;6.26;72.42;102779.50;4987905;28;20065;-70
2023/05/03 05:02:50;;;;;;;7.25;4.18;;;;;;;6.36;71.39;102788.41;4988821;28;20050;-70
2023/05/03 05:05:17;;;;;;;6.78;3.90;;;;;;;6.91;70.49;102795.47;4988633;28;20106;-71
2023/05/03 05:07:46;;;;;;;9.02;3.90;;;;;;;8.43;66.63;102787.81;4988884;28;20053;-71
2023/05/03 05:10:15;;;;;;;8.43;3.90;;;;;;;8.86;64.15;102789.97;4988937;28;20045;-71
2023/05/03 05:12:42;;;;;;;9.77;3.97;;;;;;;9.15;62.79;102789.31;4988268;28;20039;-71
2023/05/03 05:15:10;;;;;;;6.63;4.05;;;;;;;9.70;60.95;102793.16;4971519;28;20101;-70
2023/05/03 05:17:38;;;;;;;5.28;3.20;;;;;;;9.99;59.03;102801.16;4988097;28;20074;-71
2023/05/03 05:20:11;;;;;;;6.40;3.20;;;;;;;10.52;57.35;102801.31;4988493;28;20043;-71
2023/05/03 05:22:42;;;;;;;5.00;3.25;;;;;;;11.26;55.49;102793.38;4987205;28;20404;-71
2023/05/03 05:25:09;;;;;;;7.38;3.35;;;;;;;12.29;53.16;102796.50;4987722;28;20582;-70
2023/05/03 05:27:38;;;;;;;4.68;3.08;;;;;;;13.38;50.77;102795.59;4987864;28;20039;-70
2023/05/03 05:30:06;;;;;;;5.55;3.10;;;;;;;14.17;48.43;102800.81;4971061;28;20154;-70
2023/05/03 05:32:34;;;;;;;7.30;2.85;;;;;;;14.76;46.12;102802.59;4972361;28;20039;-70
2023/05/03 05:35:02;;;;;;;3.75;2.90;;;;;;;15.21;45.21;102794.69;4987261;28;20106;-70
2023/05/03 05:37:30;;;;;;;5.78;2.70;;;;;;;15.66;43.29;102798.25;4972275;28;20038;-70
2023/05/03 05:40:01;;;;;;;5.70;2.85;;;;;;;15.86;42.43;102800.53;4987872;28;20486;-70
2023/05/03 05:42:34;;;;;;;5.10;2.60;;;;;;;15.99;41.67;102799.34;4987576;28;20053;-70
2023/05/03 05:45:02;;;;;;;9.02;2.75;;;;;;;16.33;41.46;102807.47;4986581;28;20065;-70
2023/05/03 05:47:29;;;;;;;7.63;3.00;;;;;;;16.45;40.32;102809.88;4987534;28;20093;-70
2023/05/03 05:49:57;;;;;;;5.82;2.75;;;;;;;15.37;42.13;102818.31;4987745;28;20043;-70
2023/05/03 05:52:25;;;;;;;6.82;2.50;;;;;;;12.90;46.47;102818.09;4986241;28;20485;-70
2023/05/03 05:54:51;;;;;;;7.15;2.83;;;;;;;11.07;51.25;102826.81;4988097;28;20039;-70
2023/05/03 05:57:20;;;;;;;6.72;3.08;;;;;;;9.90;54.56;102827.47;4987298;28;20047;-70
2023/05/03 05:59:47;;;;;;;5.78;3.30;;;;;;;9.14;57.59;102834.91;4988123;28;20038;-70
2023/05/03 06:02:15;;;;;;;6.57;3.08;;;;;;;8.64;59.64;102834.50;4987430;28;20051;-70
2023/05/03 06:04:45;;;;;;;6.38;3.35;;;;;;;8.31;61.28;102833.25;4987105;28;20611;-70
2023/05/03 06:07:13;;;;;;;7.72;3.42;;;;;;;8.04;62.69;102829.44;4989380;28;20038;-70
2023/05/03 06:09:41;;;;;;;9.23;3.40;;;;;;;7.90;63.64;102834.53;4988701;28;20129;-70
2023/05/03 06:12:09;;;;;;;6.70;3.28;;;;;;;7.81;64.18;102823.00;4987590;28;20034;-70
2023/05/03 06:14:40;;;;;;;8.13;3.38;;;;;;;7.77;64.58;102824.72;4987190;28;20044;-70
2023/05/03 06:17:27;;;;;;;5.38;3.25;;;;;;;7.76;64.75;102826.47;4988198;28;20459;-70
2023/05/03 06:19:56;;;;;;;7.10;3.35;;;;;;;7.75;65.70;102815.94;4987533;28;20045;-70
2023/05/03 06:22:24;;;;;;;5.65;3.28;;;;;;;7.80;66.02;102827.41;4986204;28;20093;-70
2023/05/03 06:24:54;;;;;;;5.45;3.67;;;;;;;7.89;65.85;102824.88;4966987;28;20360;-70
2023/05/03 06:27:21;;;;;;;5.78;3.38;;;;;;;7.93;65.70;102828.44;4969322;28;20039;-70
2023/05/03 06:29:50;;;;;;;7.25;3.50;;;;;;;8.00;65.61;102827.63;4966480;28;20076;-71
2023/05/03 06:32:18;;;;;;;5.40;3.50;;;;;;;8.05;65.41;102835.56;4968893;28;20051;-70
2023/05/03 06:34:45;;;;;;;6.57;3.50;;;;;;;8.09;65.59;102827.72;4983679;28;20126;-70
2023/05/03 06:37:12;;;;;;;8.75;3.40;;;;;;;8.17;65.04;102826.97;4992589;28;20062;-70
2023/05/03 06:39:40;;;;;;;5.78;3.42;;;;;;;8.22;65.63;102825.25;4987219;28;20422;-70
2023/05/03 06:42:07;;;;;;;7.25;3.80;;;;;;;8.32;65.76;102823.63;4987974;28;20043;-70
2023/05/03 06:44:37;;;;;;;7.70;3.75;;;;;;;8.40;65.66;102821.97;4971202;28;20039;-70
2023/05/03 06:47:04;;;;;;;6.75;3.70;;;;;;;8.50;65.78;102823.84;4986409;28;20045;-70
2023/05/03 06:49:31;;;;;;;5.15;3.45;;;;;;;8.59;65.36;102822.16;4987823;28;20050;-70
2023/05/03 06:51:58;;;;;;;7.05;3.50;;;;;;;8.67;64.71;102820.50;4987893;28;20039;-70
2023/05/03 06:54:25;;;;;;;5.80;3.67;;;;;;;8.69;64.90;102822.28;4987918;28;20039;-70
2023/05/03 06:56:52;;;;;;;9.80;4.03;;;;;;;8.76;64.90;102817.06;4988480;28;20046;-70
2023/05/03 06:59:19;;;;;;;6.57;3.53;;;;;;;8.83;64.42;102816.25;4986656;28;20102;-70
2023/05/03 07:01:46;;;;;;;7.50;3.88;;;;;;;8.88;64.05;102811.94;4987065;28;20050;-70
2023/05/03 07:04:13;;;;;;;8.63;3.63;;;;;;;8.92;63.92;102815.47;4987056;28;20071;-70
2023/05/03 07:06:40;;;;;;;7.35;3.63;;;;;;;8.95;63.65;102805.84;4986693;28;20125;-70
2023/05/03 07:09:22;;;;;;;8.80;3.47;;;;;;;9.00;63.56;102817.25;4986448;28;20039;-70
2023/05/03 07:12:08;;;;;;;6.07;3.38;;;;;;;9.07;63.12;102810.31;4987977;28;20506;-70
2023/05/03 07:14:35;;;;;;;7.35;4.10;;;;;;;9.07;63.20;102802.41;4986104;28;20052;-70
2023/05/03 07:17:02;;;;;;;7.50;3.65;;;;;;;9.09;63.08;102792.78;4986639;28;20512;-70
2023/05/03 07:19:29;;;;;;;6.03;3.50;;;;;;;9.11;63.31;102790.16;4986615;28;20046;-71
2023/05/03 07:21:56;;;;;;;6.35;3.65;;;;;;;9.20;63.69;102797.25;4987506;28;20051;-70
2023/05/03 07:24:26;;;;;;;5.47;3.25;;;;;;;9.29;63.33;102790.31;4987416;28;20530;-70
2023/05/03 07:26:53;;;;;;;7.38;3.75;;;;;;;9.40;63.56;102792.13;4987359;28;20578;-71
2023/05/03 07:29:20;;;;;;;13.90;3.50;;;;;;;9.52;63.09;102789.53;4970124;28;20827;-70
2023/05/03 07:31:47;;;;;;;6.80;3.60;;;;;;;9.65;61.95;102793.13;4987016;28;20034;-70
2023/05/03 07:34:16;;;;;;;7.38;3.47;;;;;;;9.71;62.10;102793.13;4987072;28;20047;-70
2023/05/03 07:36:43;;;;;;;4.63;3.17;;;;;;;9.84;61.57;102801.97;4982545;28;20043;-70
2023/05/03 07:39:11;;;;;;;5.43;3.50;;;;;;;9.93;62.05;102802.00;4967404;28;20107;-70
2023/05/03 07:41:38;;;;;;;6.07;3.15;;;;;;;10.04;60.87;102790.63;4967777;28;20083;-70
2023/05/03 07:44:05;;;;;;;7.72;3.10;;;;;;;10.13;59.28;102792.41;4966721;28;20031;-70
2023/05/03 07:46:33;;;;;;;3.90;2.60;;;;;;;10.11;58.60;102792.41;4965856;28;20574;-70
2023/05/03 07:49:05;;;;;;;9.18;3.33;;;;;;;10.08;59.59;102787.13;4967785;28;20051;-71
2023/05/03 07:51:37;;;;;;;5.03;2.88;;;;;;;10.18;58.14;102788.00;4966385;28;20070;-71
2023/05/03 07:54:05;;;;;;;7.78;2.60;;;;;;;10.17;58.83;102787.16;4967793;28;20043;-70
2023/05/03 07:56:32;;;;;;;5.88;3.05;;;;;;;10.28;58.35;102786.28;4966681;28;20039;-70
2023/05/03 07:58:59;;;;;;;5.45;2.33;;;;;;;10.37;57.51;102779.34;4966563;28;20066;-70
2023/05/03 08:01:29;;;;;;;4.80;2.30;;;;;;;10.41;59.25;102780.22;4967245;28;20047;-71
2023/05/03 08:03:57;;;;;;;5.68;2.83;;;;;;;10.60;58.75;102774.94;4934399;28;20081;-71
2023/05/03 08:06:24;;;;;;;14.40;3.17;;;;;;;10.76;58.97;102767.91;4967962;28;20043;-71
2023/05/03 08:08:52;;;;;;;9.65;2.72;;;;;;;10.93;57.50;102770.56;4949568;28;20471;-70
2023/05/03 08:11:19;;;;;;;9.80;2.55;;;;;;;11.02;57.36;102763.47;4982175;28;20043;-71
2023/05/03 08:13:46;;;;;;;5.50;2.47;;;;;;;11.15;55.87;102760.84;4967244;28;20463;-71
2023/05/03 08:16:13;;;;;;;5.50;2.30;;;;;;;11.22;54.70;102756.41;4977589;28;20066;-70
2023/05/03 08:18:40;;;;;;;5.13;2.30;;;;;;;11.22;54.16;102757.28;4986714;28;20039;-70
2023/05/03 08:21:08;;;;;;;6.43;2.10;;;;;;;11.24;55.27;102747.59;4987267;28;20987;-71
2023/05/03 08:23:35;;;;;;;9.57;2.58;;;;;;;11.34;54.82;102745.84;4984970;28;20053;-70
2023/05/03 08:26:03;;;;;;;6.05;2.08;;;;;;;11.47;54.96;102739.59;4987165;28;20038;-71
2023/05/03 08:28:30;;;;;;;15.55;2.50;;;;;;;11.61;54.63;102744.81;4985893;28;20047;-70
2023/05/03 08:30:57;;;;;;;4.07;1.98;;;;;;;11.73;52.34;102743.03;4985947;28;20035;-69
2023/05/03 08:33:24;;;;;;;5.30;2.05;;;;;;;11.74;52.18;102740.38;4986192;28;20104;-72
2023/05/03 08:35:51;;;;;;;6.18;2.40;;;;;;;11.80;51.45;102739.47;4985609;28;20050;-70
2023/05/03 08:38:18;;;;;;;4.50;1.70;;;;;;;11.75;51.22;102744.75;4984771;28;20069;-70
2023/05/03 08:40:50;;;;;;;3.83;2.15;;;;;;;11.76;51.40;102743.88;4986854;28;20101;-70
2023/05/03 08:43:20;;;;;;;5.13;2.10;;;;;;;11.79;51.62;102738.59;4986155;28;20050;-70
2023/05/03 08:45:47;;;;;;;5.95;2.08;;;;;;;11.84;50.82;102742.97;4984952;28;20047;-70
2023/05/03 08:48:15;;;;;;;8.43;2.55;;;;;;;11.86;52.43;102742.06;4985401;28;20142;-70
2023/05/03 08:50:43;;;;;;;5.18;1.77;;;;;;;12.01;50.09;102745.53;4986979;28;20133;-69
2023/05/03 08:53:10;;;;;;;3.42;2.10;;;;;;;12.01;50.36;102745.53;4986955;28;20566;-69
2023/05/03 08:55:37;;;;;;;3.45;1.77;;;;;;;12.08;51.22;102745.50;4986743;28;20039;-69
2023/05/03 08:58:11;;;;;;;4.63;1.90;;;;;;;12.22;50.01;102744.53;4986312;28;20545;-71
2023/05/03 09:00:43;;;;;;;6.07;2.00;;;;;;;12.33;48.98;102749.75;4986257;28;20050;-70
2023/05/03 09:03:11;;;;;;;4.00;2.00;;;;;;;12.31;49.55;102752.41;4985823;28;20039;-70
2023/05/03 09:05:42;;;;;;;4.13;1.98;;;;;;;12.38;50.06;102740.03;4986156;28;20039;-70
2023/05/03 09:08:12;;;;;;;4.47;2.10;;;;;;;12.41;50.08;102732.06;4970696;28;20047;-70
2023/05/03 09:10:41;;;;;;;5.05;1.75;;;;;;;12.42;49.38;102721.47;4970001;28;20040;-70
2023/05/03 09:13:09;;;;;;;5.95;2.10;;;;;;;12.45;48.56;102717.06;4984705;28;20138;-71
2023/05/03 09:15:37;;;;;;;6.03;2.05;;;;;;;12.39;49.39;102721.47;4969589;28;20409;-70
2023/05/03 09:18:14;;;;;;;3.85;2.17;;;;;;;12.46;50.03;102724.09;4984476;28;20058;-70
2023/05/03 09:20:52;;;;;;;2.80;2.00;;;;;;;12.55;48.87;102716.09;4984816;28;20039;-70
2023/05/03 09:23:25;;;;;;;4.43;2.00;;;;;;;12.54;49.52;102715.19;4969543;28;20554;-70
2023/05/03 09:25:52;;;;;;;3.10;2.10;;;;;;;12.59;49.68;102709.84;4969789;28;20062;-70
2023/05/03 09:28:20;;;;;;;6.22;2.30;;;;;;;12.70;50.83;102723.00;4969621;28;20035;-70
2023/05/03 09:30:49;;;;;;;6.13;2.05;;;;;;;12.86;50.20;102729.03;4984472;28;20047;-70
2023/05/03 09:33:28;;;;;;;7.20;2.17;;;;;;;12.96;49.26;102727.16;4968879;28;20043;-71
2023/05/03 09:36:00;;;;;;;5.32;2.13;;;;;;;12.93;48.58;102732.47;4969412;28;20095;-71
2023/05/03 09:38:30;;;;;;;3.67;2.08;;;;;;;12.95;48.03;102746.56;4969403;28;20632;-71
2023/05/03 09:40:57;;;;;;;4.35;2.17;;;;;;;13.00;47.84;102750.06;4969387;28;20114;-70
2023/05/03 09:43:24;;;;;;;5.43;2.22;;;;;;;12.96;47.61;102746.56;4969886;28;21031;-71
2023/05/03 09:45:51;;;;;;;5.95;2.45;;;;;;;12.96;47.73;102736.00;4967864;28;20059;-71
2023/05/03 09:48:22;;;;;;;4.38;2.20;;;;;;;12.92;47.90;102730.75;4968023;28;20044;-71
2023/05/03 09:50:50;;;;;;;4.53;2.13;;;;;;;12.91;48.00;102729.84;4968890;28;20209;-70
2023/05/03 09:53:20;;;;;;;4.28;2.30;;;;;;;12.94;47.65;102727.19;4969059;28;20047;-70
2023/05/03 09:55:49;;;;;;;3.38;2.20;;;;;;;12.92;46.91;102720.16;4969950;28;20039;-70
2023/05/03 09:58:17;;;;;;;3.25;2.33;;;;;;;12.87;47.79;102728.13;4968089;28;20595;-70
2023/05/03 10:00:45;;;;;;;6.32;2.08;;;;;;;12.95;49.13;102726.28;4969110;28;20102;-70
2023/05/03 10:03:27;;;;;;;16.10;3.03;;;;;;;13.15;49.08;102720.75;4969566;28;20054;-70
2023/05/03 10:05:54;;;;;;;5.65;2.75;;;;;;;13.38;48.24;102716.13;4969659;28;20043;-70
2023/05/03 10:08:31;;;;;;;6.53;2.72;;;;;;;13.57;46.75;102716.78;4984068;28;20050;-71
2023/05/03 10:10:58;;;;;;;5.72;2.50;;;;;;;13.33;47.03;102701.16;4969519;28;20607;-70
2023/05/03 10:13:28;;;;;;;4.32;2.35;;;;;;;13.35;46.82;102709.06;4968246;28;20043;-70
2023/05/03 10:16:08;;;;;;;5.38;2.72;;;;;;;13.34;47.03;102712.59;4969404;28;20441;-70
2023/05/03 10:18:46;;;;;;;4.28;2.30;;;;;;;13.41;47.59;102716.97;4983302;28;20035;-71
2023/05/03 10:21:57;;;;;;;8.05;2.53;;;;;;;13.54;46.32;102715.03;4967827;28;20039;-71
2023/05/03 10:24:25;;;;;;;4.32;2.20;;;;;;;13.54;46.69;102711.50;4964937;28;20051;-70
2023/05/03 10:26:56;;;;;;;5.63;2.58;;;;;;;13.61;47.18;102710.56;4968826;28;20672;-70
2023/05/03 10:29:36;;;;;;;2.80;2.20;;;;;;;13.72;46.66;102713.03;4969052;28;20110;-70
2023/05/03 10:32:04;;;;;;;4.57;2.40;;;;;;;13.77;46.90;102708.56;4983135;28;20046;-70
2023/05/03 10:34:34;;;;;;;6.15;2.58;;;;;;;13.87;46.61;102707.53;4983224;28;20050;-70
2023/05/03 10:37:09;;;;;;;4.15;2.17;;;;;;;13.96;45.92;102699.44;4976359;28;20070;-70
2023/05/03 10:39:42;;;;;;;5.78;2.10;;;;;;;14.02;44.44;102708.19;4988180;28;20047;-70
2023/05/03 10:42:09;;;;;;;4.88;2.53;;;;;;;13.96;45.04;102714.47;4987231;28;20518;-70
2023/05/03 10:44:50;;;;;;;4.28;2.60;;;;;;;14.10;44.76;102712.50;4988765;28;20035;-71
2023/05/03 10:47:23;;;;;;;5.43;2.30;;;;;;;13.99;45.46;102711.78;4987378;28;20091;-70
2023/05/03 10:50:15;;;;;;;6.55;2.33;;;;;;;14.00;45.14;102712.63;4987361;28;20125;-71
2023/05/03 10:52:42;;;;;;;4.10;2.60;;;;;;;14.03;45.82;102707.31;4986772;28;20099;-71
2023/05/03 10:55:19;;;;;;;3.97;2.55;;;;;;;14.12;45.35;102701.84;4985961;28;20063;-71
2023/05/03 10:57:49;;;;;;;5.45;2.20;;;;;;;14.27;45.30;102714.00;4986679;28;20043;-71
2023/05/03 11:00:31;;;;;;;5.03;2.22;;;;;;;14.35;44.97;102700.59;4988414;28;20057;-71
2023/05/03 11:03:28;;;;;;;7.57;2.45;;;;;;;14.49;45.38;102703.03;4987302;28;20035;-71
2023/05/03 11:05:56;;;;;;;6.78;2.50;;;;;;;14.68;45.46;102701.84;4986961;28;20057;-71
2023/05/03 11:08:24;;;;;;;4.55;2.10;;;;;;;14.88;42.69;102704.13;4980012;28;20519;-71
2023/05/03 11:10:59;;;;;;;6.55;2.35;;;;;;;14.91;42.93;102693.44;4967017;28;20039;-71
2023/05/03 11:13:27;;;;;;;3.75;2.50;;;;;;;14.99;43.55;102695.09;4968484;28;20547;-71
2023/05/03 11:15:55;;;;;;;5.95;2.90;;;;;;;15.06;43.51;102683.44;4967831;28;20086;-71
2023/05/03 11:18:26;;;;;;;5.35;2.40;;;;;;;15.13;43.64;102678.88;4967312;28;20031;-71
2023/05/03 11:20:53;;;;;;;5.00;2.42;;;;;;;15.21;43.12;102675.13;4982718;28;20460;-71
2023/05/03 11:23:27;;;;;;;5.30;2.00;;;;;;;15.41;42.33;102679.19;4983338;28;20134;-71
2023/05/03 11:25:56;;;;;;;3.33;2.13;;;;;;;15.37;41.12;102678.34;4983486;28;20126;-71
2023/05/03 11:28:25;;;;;;;6.45;2.30;;;;;;;15.47;42.08;102667.50;4968544;28;20035;-71
2023/05/03 11:30:51;;;;;;;6.47;2.50;;;;;;;15.64;40.93;102673.34;4966906;28;20039;-71
2023/05/03 11:33:19;;;;;;;4.30;2.40;;;;;;;15.60;40.53;102666.34;4967333;28;20098;-71
2023/05/03 11:35:46;;;;;;;3.92;2.50;;;;;;;15.53;41.79;102665.59;4967643;28;20122;-71
2023/05/03 11:38:13;;;;;;;4.43;1.95;;;;;;;15.67;41.15;102659.09;4987220;28;20115;-71
2023/05/03 11:40:40;;;;;;;3.55;2.60;;;;;;;15.62;40.39;102666.31;4974790;28;20539;-71
2023/05/03 11:43:07;;;;;;;5.43;2.13;;;;;;;15.53;40.44;102659.44;4970730;28;20062;-71